createdAt,value
2018-07-07T00:00:12.542Z,68.03
2018-07-07T00:03:18.315Z,67.83
2018-07-07T00:06:23.406Z,67.96
2018-07-07T00:09:28.554Z,67.18
2018-07-07T00:12:33.403Z,67.96
2018-07-07T00:15:39.309Z,68.24
2018-07-07T00:18:44.975Z,68.26
2018-07-07T00:21:50.387Z,67.85
2018-07-07T00:24:56.081Z,68.28
2018-07-07T00:28:01.190Z,67.69
2018-07-07T00:31:06.613Z,68.43
2018-07-07T00:34:12.788Z,68.58
2018-07-07T00:37:19.007Z,69.16
2018-07-07T00:40:25.302Z,68.67
2018-07-07T00:43:30.736Z,68.52
2018-07-07T00:46:37.117Z,68.67
2018-07-07T00:49:43.366Z,68.77
2018-07-07T00:52:48.477Z,69.02
2018-07-07T00:55:54.202Z,69.05
2018-07-07T00:58:59.777Z,68.91
2018-07-07T01:02:09.052Z,69.19
2018-07-07T01:05:26.183Z,69.29
2018-07-07T01:08:31.841Z,68.74
2018-07-07T01:11:37.483Z,69.32
2018-07-07T01:14:43.741Z,69.21
2018-07-07T01:17:48.595Z,69.62
2018-07-07T01:20:54.457Z,69.17
2018-07-07T01:24:00.577Z,69.51
2018-07-07T01:27:05.682Z,69.34
2018-07-07T01:30:11.946Z,69.42
2018-07-07T01:33:17.047Z,70.42
2018-07-07T01:36:22.757Z,69.24
2018-07-07T01:39:27.898Z,69.80
2018-07-07T01:42:33.946Z,70.05
2018-07-07T01:45:40.088Z,70.03
2018-07-07T01:48:45.977Z,69.86
2018-07-07T01:51:51.717Z,70.06
2018-07-07T01:54:57.745Z,70.30
2018-07-07T01:58:03.194Z,69.64
2018-07-07T02:01:08.982Z,70.29
2018-07-07T02:04:14.086Z,69.73
2018-07-07T02:07:19.897Z,70.59
2018-07-07T02:10:26.924Z,70.00
2018-07-07T02:13:32.705Z,71.08
2018-07-07T02:16:37.797Z,70.99
2018-07-07T02:19:44.254Z,70.63
2018-07-07T02:22:50.280Z,71.10
2018-07-07T02:25:56.415Z,71.43
2018-07-07T02:29:01.858Z,70.60
2018-07-07T02:32:08.153Z,71.18
2018-07-07T02:35:13.274Z,71.44
2018-07-07T02:38:18.431Z,71.71
2018-07-07T02:41:23.693Z,71.50
2018-07-07T02:44:29.238Z,71.46
2018-07-07T02:47:34.330Z,71.67
2018-07-07T02:50:39.794Z,72.13
2018-07-07T02:53:47.197Z,72.17
2018-07-07T02:56:52.956Z,72.78
2018-07-07T02:59:58.961Z,72.48
2018-07-07T03:03:05.535Z,71.92
2018-07-07T03:06:11.492Z,71.77
2018-07-07T03:09:17.657Z,72.53
2018-07-07T03:12:23.264Z,71.98
2018-07-07T03:15:29.069Z,72.98
2018-07-07T03:18:35.019Z,73.06
2018-07-07T03:21:40.559Z,72.18
2018-07-07T03:24:46.381Z,73.15
2018-07-07T03:27:52.281Z,73.09
2018-07-07T03:30:57.722Z,71.80
2018-07-07T03:34:03.576Z,72.72
2018-07-07T03:37:08.717Z,73.42
2018-07-07T03:40:13.917Z,73.34
2018-07-07T03:43:20.358Z,72.84
2018-07-07T03:46:27.369Z,73.08
2018-07-07T03:49:33.429Z,72.86
2018-07-07T03:52:39.811Z,72.41
2018-07-07T03:55:45.508Z,73.31
2018-07-07T03:58:50.422Z,73.18
2018-07-07T04:01:55.408Z,72.41
2018-07-07T04:05:00.809Z,72.55
2018-07-07T04:08:07.590Z,73.26
2018-07-07T04:11:13.045Z,72.40
2018-07-07T04:14:18.145Z,72.30
2018-07-07T04:17:23.857Z,72.29
2018-07-07T04:20:28.901Z,72.70
2018-07-07T04:23:34.658Z,72.84
2018-07-07T04:26:39.748Z,72.92
2018-07-07T04:29:47.077Z,73.00
2018-07-07T04:32:52.617Z,72.78
2018-07-07T04:35:59.977Z,72.70
2018-07-07T04:39:06.542Z,72.35
2018-07-07T04:42:12.258Z,73.47
2018-07-07T04:45:17.333Z,71.45
2018-07-07T04:48:23.924Z,71.45
2018-07-07T04:51:30.194Z,71.27
2018-07-07T04:54:36.474Z,72.19
2018-07-07T04:57:42.102Z,71.67
2018-07-07T05:00:47.614Z,71.76
2018-07-07T05:03:54.457Z,71.87
2018-07-07T05:07:00.742Z,72.94
2018-07-07T05:10:06.473Z,71.78
2018-07-07T05:13:11.880Z,71.48
2018-07-07T05:16:17.991Z,71.43
2018-07-07T05:19:24.021Z,71.52
2018-07-07T05:22:29.110Z,71.01
2018-07-07T05:25:35.611Z,72.30
2018-07-07T05:28:42.868Z,71.89
2018-07-07T05:31:48.885Z,71.27
2018-07-07T05:34:54.177Z,71.50
2018-07-07T05:37:59.830Z,71.30
2018-07-07T05:41:05.498Z,71.25
2018-07-07T05:44:11.604Z,71.00
2018-07-07T05:47:16.696Z,71.39
2018-07-07T05:50:22.833Z,71.26
2018-07-07T05:53:27.990Z,70.67
2018-07-07T05:56:33.485Z,70.54
2018-07-07T05:59:38.316Z,71.11
2018-07-07T06:02:45.533Z,70.76
2018-07-07T06:05:52.226Z,70.86
2018-07-07T06:08:59.530Z,70.94
2018-07-07T06:12:06.448Z,70.55
2018-07-07T06:15:13.381Z,70.30
2018-07-07T06:18:19.413Z,70.64
2018-07-07T06:21:25.665Z,70.16
2018-07-07T06:24:31.587Z,70.95
2018-07-07T06:27:37.065Z,70.65
2018-07-07T06:30:43.073Z,70.59
2018-07-07T06:33:48.156Z,69.83
2018-07-07T06:36:53.284Z,70.36
2018-07-07T06:39:58.833Z,69.95
2018-07-07T06:43:03.937Z,69.95
2018-07-07T06:46:10.891Z,69.72
2018-07-07T06:49:16.594Z,69.62
2018-07-07T06:52:21.720Z,69.91
2018-07-07T06:55:31.079Z,69.14
2018-07-07T06:58:36.519Z,69.09
2018-07-07T07:01:42.496Z,68.94
2018-07-07T07:04:48.101Z,68.53
2018-07-07T07:07:53.447Z,68.65
2018-07-07T07:11:00.725Z,68.96
2018-07-07T07:14:06.492Z,68.36
2018-07-07T07:17:11.581Z,68.36
2018-07-07T07:20:17.169Z,69.31
2018-07-07T07:23:23.658Z,68.76
2018-07-07T07:26:30.406Z,68.61
2018-07-07T07:29:35.502Z,68.32
2018-07-07T07:32:41.124Z,68.61
2018-07-07T07:35:45.987Z,68.55
2018-07-07T07:38:50.826Z,68.10
2018-07-07T07:41:55.936Z,67.76
2018-07-07T07:45:01.290Z,67.44
2018-07-07T07:48:07.525Z,67.70
2018-07-07T07:51:12.629Z,67.86
2018-07-07T07:54:17.788Z,67.69
2018-07-07T07:57:22.590Z,67.03
2018-07-07T08:00:27.729Z,67.17
2018-07-07T08:03:32.837Z,66.58
2018-07-07T08:06:37.906Z,67.21
2018-07-07T08:09:43.005Z,66.39
2018-07-07T08:12:48.990Z,66.74
2018-07-07T08:15:54.366Z,66.56
2018-07-07T08:19:00.542Z,65.75
2018-07-07T08:22:05.986Z,66.33
2018-07-07T08:25:11.897Z,65.59
2018-07-07T08:28:17.374Z,65.44
2018-07-07T08:31:24.425Z,65.42
2018-07-07T08:34:30.457Z,66.08
2018-07-07T08:37:36.503Z,64.75
2018-07-07T08:40:42.916Z,65.51
2018-07-07T08:43:48.620Z,65.77
2018-07-07T08:46:54.054Z,64.46
2018-07-07T08:49:59.166Z,64.87
2018-07-07T08:53:04.825Z,64.52
2018-07-07T08:56:10.785Z,63.67
2018-07-07T08:59:18.104Z,63.16
2018-07-07T09:02:23.857Z,63.44
2018-07-07T09:05:28.998Z,63.20
2018-07-07T09:08:34.133Z,63.68
2018-07-07T09:11:39.588Z,62.99
2018-07-07T09:14:45.624Z,62.47
2018-07-07T09:17:51.153Z,63.23
2018-07-07T09:20:57.067Z,62.48
2018-07-07T09:24:02.198Z,62.31
2018-07-07T09:27:07.290Z,62.19
2018-07-07T09:30:12.403Z,61.72
2018-07-07T09:33:17.937Z,60.26
2018-07-07T09:36:23.054Z,61.00
2018-07-07T09:39:28.150Z,60.37
2018-07-07T09:42:33.293Z,60.19
2018-07-07T09:45:38.413Z,59.05
2018-07-07T09:48:43.785Z,59.97
2018-07-07T09:51:48.898Z,59.53
2018-07-07T09:54:54.356Z,59.85
2018-07-07T09:57:59.470Z,59.10
2018-07-07T10:01:05.007Z,58.60
2018-07-07T10:04:11.061Z,55.54
2018-07-07T10:07:18.711Z,56.97
2018-07-07T10:10:25.565Z,54.66
2018-07-07T10:13:32.000Z,53.90
2018-07-07T10:16:39.209Z,54.71
2018-07-07T10:19:44.967Z,54.78
2018-07-07T10:22:50.298Z,55.10
2018-07-07T10:25:56.310Z,55.89
2018-07-07T10:29:01.409Z,56.01
2018-07-07T10:32:06.883Z,56.06
2018-07-07T10:35:11.941Z,56.95
2018-07-07T10:38:19.072Z,55.73
2018-07-07T10:41:25.058Z,55.46
2018-07-07T10:44:30.514Z,55.50
2018-07-07T10:47:35.953Z,54.08
2018-07-07T10:50:41.041Z,54.67
2018-07-07T10:53:45.874Z,55.16
2018-07-07T10:56:51.430Z,55.19
2018-07-07T10:59:58.494Z,55.36
2018-07-07T11:03:04.097Z,55.27
2018-07-07T11:06:10.127Z,55.24
2018-07-07T11:09:15.885Z,53.25
2018-07-07T11:12:22.143Z,54.99
2018-07-07T11:15:27.650Z,53.84
2018-07-07T11:18:33.898Z,53.45
2018-07-07T11:21:39.913Z,53.59
2018-07-07T11:24:45.546Z,54.27
2018-07-07T11:27:56.432Z,54.53
2018-07-07T11:31:01.557Z,53.91
2018-07-07T11:34:08.218Z,54.33
2018-07-07T11:37:14.231Z,54.64
2018-07-07T11:40:19.330Z,53.86
2018-07-07T11:43:25.009Z,53.79
2018-07-07T11:46:30.387Z,54.12
2018-07-07T11:49:36.387Z,54.93
2018-07-07T11:52:42.402Z,54.88
2018-07-07T11:55:47.849Z,53.57
2018-07-07T11:58:52.958Z,54.08
2018-07-07T12:01:59.292Z,53.38
2018-07-07T12:05:05.512Z,53.51
2018-07-07T12:08:13.990Z,53.53
2018-07-07T12:11:18.446Z,54.82
2018-07-07T12:14:24.610Z,54.64
2018-07-07T12:17:30.506Z,53.80
2018-07-07T12:20:36.861Z,53.48
2018-07-07T12:23:42.720Z,53.65
2018-07-07T12:26:49.113Z,53.78
2018-07-07T12:29:55.524Z,53.90
2018-07-07T12:33:01.202Z,53.78
2018-07-07T12:36:08.237Z,53.64
2018-07-07T12:39:14.154Z,53.48
2018-07-07T12:42:19.389Z,51.54
2018-07-07T12:45:25.328Z,52.93
2018-07-07T12:48:30.422Z,52.49
2018-07-07T12:51:35.867Z,51.81
2018-07-07T12:54:40.990Z,52.55
2018-07-07T12:57:46.199Z,53.05
2018-07-07T13:00:52.550Z,53.52
2018-07-07T13:03:57.689Z,53.08
2018-07-07T13:07:02.873Z,53.09
2018-07-07T13:10:09.169Z,53.12
2018-07-07T13:13:15.109Z,52.87
2018-07-07T13:16:21.573Z,52.14
2018-07-07T13:19:27.410Z,52.10
2018-07-07T13:22:33.371Z,52.97
2018-07-07T13:25:38.500Z,52.93
2018-07-07T13:28:43.839Z,52.17
2018-07-07T13:31:49.883Z,52.89
2018-07-07T13:34:54.983Z,51.96
2018-07-07T13:38:00.196Z,51.55
2018-07-07T13:41:07.401Z,52.50
2018-07-07T13:44:12.770Z,51.71
2018-07-07T13:47:17.985Z,52.16
2018-07-07T13:50:23.153Z,52.38
2018-07-07T13:53:28.278Z,52.21
2018-07-07T13:56:33.813Z,51.68
2018-07-07T13:59:39.673Z,51.85
2018-07-07T14:02:45.730Z,51.63
2018-07-07T14:05:52.971Z,51.52
2018-07-07T14:09:00.036Z,50.98
2018-07-07T14:12:05.273Z,51.41
2018-07-07T14:15:10.806Z,51.60
2018-07-07T14:18:16.829Z,51.15
2018-07-07T14:21:22.842Z,51.37
2018-07-07T14:24:27.697Z,50.56
2018-07-07T14:27:33.334Z,50.83
2018-07-07T14:30:38.434Z,50.63
2018-07-07T14:33:44.057Z,50.03
2018-07-07T14:36:50.534Z,51.29
2018-07-07T14:39:58.395Z,50.12
2018-07-07T14:43:04.558Z,50.20
2018-07-07T14:46:09.637Z,50.61
2018-07-07T14:49:15.723Z,50.33
2018-07-07T14:52:20.887Z,50.87
2018-07-07T14:55:27.451Z,49.94
2018-07-07T14:58:33.467Z,49.38
2018-07-07T15:01:40.344Z,49.63
2018-07-07T15:04:47.483Z,49.47
2018-07-07T15:07:53.513Z,49.36
2018-07-07T15:10:58.697Z,50.13
2018-07-07T15:14:05.045Z,49.93
2018-07-07T15:17:11.206Z,49.55
2018-07-07T15:20:17.244Z,50.00
2018-07-07T15:23:22.368Z,49.85
2018-07-07T15:26:27.490Z,49.37
2018-07-07T15:29:32.626Z,49.24
2018-07-07T15:32:38.389Z,49.71
2018-07-07T15:35:44.795Z,49.87
2018-07-07T15:38:50.506Z,50.26
2018-07-07T15:41:56.529Z,49.38
2018-07-07T15:45:02.789Z,50.21
2018-07-07T15:48:08.883Z,48.70
2018-07-07T15:51:15.297Z,49.12
2018-07-07T15:54:21.555Z,48.72
2018-07-07T15:57:26.397Z,49.66
2018-07-07T16:00:32.653Z,48.84
2018-07-07T16:03:38.389Z,48.90
2018-07-07T16:06:44.951Z,48.87
2018-07-07T16:09:50.868Z,49.66
2018-07-07T16:12:56.093Z,49.01
2018-07-07T16:16:01.193Z,48.71
2018-07-07T16:19:06.285Z,48.58
2018-07-07T16:22:11.720Z,49.28
2018-07-07T16:25:17.166Z,48.27
2018-07-07T16:28:24.301Z,49.13
2018-07-07T16:31:30.015Z,48.71
2018-07-07T16:34:36.092Z,48.99
2018-07-07T16:37:43.569Z,48.35
2018-07-07T16:40:50.896Z,48.37
2018-07-07T16:43:56.834Z,47.91
2018-07-07T16:47:03.866Z,48.19
2018-07-07T16:50:09.943Z,47.99
2018-07-07T16:53:16.617Z,48.35
2018-07-07T16:56:22.909Z,48.56
2018-07-07T16:59:30.304Z,48.08
2018-07-07T17:02:37.151Z,48.42
2018-07-07T17:05:43.633Z,48.18
2018-07-07T17:08:49.189Z,48.47
2018-07-07T17:11:54.451Z,48.69
2018-07-07T17:15:00.247Z,48.61
2018-07-07T17:18:06.471Z,49.02
2018-07-07T17:21:12.018Z,48.72
2018-07-07T17:24:18.109Z,48.72
2018-07-07T17:27:24.930Z,49.84
2018-07-07T17:30:29.858Z,49.20
2018-07-07T17:33:34.864Z,49.14
2018-07-07T17:36:40.548Z,50.39
2018-07-07T17:39:45.658Z,49.38
2018-07-07T17:42:52.255Z,50.00
2018-07-07T17:45:57.889Z,49.46
2018-07-07T17:49:03.941Z,49.55
2018-07-07T17:52:09.971Z,50.59
2018-07-07T17:55:16.654Z,51.17
2018-07-07T17:58:22.536Z,51.09
2018-07-07T18:01:27.632Z,50.69
2018-07-07T18:04:34.393Z,50.63
2018-07-07T18:07:40.376Z,50.42
2018-07-07T18:10:45.805Z,51.64
2018-07-07T18:13:52.269Z,51.46
2018-07-07T18:16:57.958Z,51.80
2018-07-07T18:20:03.899Z,51.25
2018-07-07T18:23:09.894Z,51.14
2018-07-07T18:26:15.332Z,52.19
2018-07-07T18:29:21.682Z,52.27
2018-07-07T18:32:27.767Z,51.73
2018-07-07T18:35:33.913Z,52.37
2018-07-07T18:38:40.950Z,52.27
2018-07-07T18:41:47.026Z,52.27
2018-07-07T18:44:53.100Z,53.39
2018-07-07T18:47:58.463Z,52.89
2018-07-07T18:51:04.466Z,53.56
2018-07-07T18:54:10.495Z,53.67
2018-07-07T18:57:15.934Z,53.28
2018-07-07T19:00:21.372Z,53.54
2018-07-07T19:03:27.279Z,53.53
2018-07-07T19:06:32.718Z,53.82
2018-07-07T19:09:37.788Z,54.06
2018-07-07T19:12:43.907Z,54.30
2018-07-07T19:15:50.134Z,54.06
2018-07-07T19:18:56.069Z,53.97
2018-07-07T19:22:06.478Z,54.31
2018-07-07T19:27:23.102Z,54.84
2018-07-07T19:30:28.675Z,55.15
2018-07-07T19:33:39.085Z,55.56
2018-07-07T19:36:50.917Z,55.92
2018-07-07T19:39:56.033Z,55.39
2018-07-07T19:43:02.018Z,55.70
2018-07-07T19:46:08.161Z,55.33
2018-07-07T19:49:15.461Z,56.56
2018-07-07T19:52:22.176Z,56.58
2018-07-07T19:55:29.549Z,56.57
2018-07-07T19:58:35.905Z,56.58
2018-07-07T20:01:42.081Z,57.45
2018-07-07T20:04:49.293Z,56.17
2018-07-07T20:07:56.179Z,56.81
2018-07-07T20:11:03.298Z,56.67
2018-07-07T20:14:09.368Z,56.37
2018-07-07T20:17:18.046Z,57.07
2018-07-07T20:20:34.654Z,57.19
2018-07-07T20:23:40.654Z,56.87
2018-07-07T20:26:51.410Z,57.66
2018-07-07T20:29:57.015Z,57.94
2018-07-07T20:33:02.434Z,57.65
2018-07-07T20:36:08.510Z,58.02
2018-07-07T20:39:13.866Z,58.76
2018-07-07T20:42:19.972Z,58.70
2018-07-07T20:45:26.329Z,58.86
2018-07-07T20:48:32.483Z,58.77
2018-07-07T20:51:38.305Z,59.28
2018-07-07T20:54:43.422Z,58.69
2018-07-07T20:57:48.537Z,58.69
2018-07-07T21:00:53.625Z,59.50
2018-07-07T21:03:59.429Z,59.80
2018-07-07T21:07:05.168Z,60.18
2018-07-07T21:10:10.253Z,59.07
2018-07-07T21:13:16.961Z,59.25
2018-07-07T21:16:23.268Z,59.54
2018-07-07T21:19:30.170Z,60.19
2018-07-07T21:22:35.907Z,60.46
2018-07-07T21:25:42.013Z,61.33
2018-07-07T21:28:48.383Z,60.12
2018-07-07T21:31:54.190Z,60.26
2018-07-07T21:34:59.053Z,60.64
2018-07-07T21:38:04.902Z,60.56
2018-07-07T21:41:12.345Z,60.44
2018-07-07T21:44:18.079Z,61.23
2018-07-07T21:47:24.749Z,61.81
2018-07-07T21:50:30.880Z,61.19
2018-07-07T21:53:37.543Z,61.91
2018-07-07T21:56:43.119Z,62.11
2018-07-07T21:59:48.235Z,62.02
2018-07-07T22:02:59.563Z,61.96
2018-07-07T22:06:08.221Z,62.45
2018-07-07T22:09:14.622Z,61.20
2018-07-07T22:12:21.058Z,62.55
2018-07-07T22:15:26.397Z,62.35
2018-07-07T22:18:31.641Z,62.39
2018-07-07T22:22:09.123Z,62.67
2018-07-07T22:25:14.929Z,63.15
2018-07-07T22:28:20.282Z,62.55
2018-07-07T22:31:25.789Z,62.70
2018-07-07T22:34:39.374Z,62.60
2018-07-07T22:37:45.420Z,63.11
2018-07-07T22:40:51.597Z,62.96
2018-07-07T22:43:58.515Z,62.75
2018-07-07T22:47:03.725Z,62.93
2018-07-07T22:50:09.807Z,62.83
2018-07-07T22:53:15.329Z,64.21
2018-07-07T22:56:21.383Z,64.07
2018-07-07T22:59:27.537Z,63.85
2018-07-07T23:02:32.953Z,64.42
2018-07-07T23:05:38.181Z,63.60
2018-07-07T23:08:44.177Z,64.33
2018-07-07T23:11:49.489Z,63.35
2018-07-07T23:14:54.634Z,64.37
2018-07-07T23:18:00.832Z,64.68
2018-07-07T23:21:06.278Z,64.49
2018-07-07T23:24:13.599Z,64.57
2018-07-07T23:27:19.321Z,64.13
2018-07-07T23:30:24.906Z,64.64
2018-07-07T23:33:30.300Z,65.06
2018-07-07T23:36:36.149Z,64.22
2018-07-07T23:39:41.309Z,65.09
2018-07-07T23:42:47.545Z,65.04
2018-07-07T23:45:54.346Z,65.20
2018-07-07T23:49:02.306Z,64.66
2018-07-07T23:52:09.626Z,64.84
2018-07-07T23:55:15.293Z,64.33
2018-07-07T23:58:20.712Z,64.76
